• Join FlightAware (Why Join?)
  • Login
  • US Flag 
09:31AM EDT


 

Airport Tracker/Info


-or-


 

Live Flight TrackerFlight Track Log ✈ SWA2147 ✈ 24-Apr-2013 ✈ KPHX - KMDW

Flight Track Log - Related Links

Times and Time Zones

All times are in EDT time to prevent confusion due to time zone crossing. See the SWA2147 flight status page for this flight to view local times or setup timezone preferences in your user account.

Time Position Orientation Groundspeed Altitude Reporting Facility
EDT Latitude Longitude Course Direction KTS MPH feet Rate Location/Type
06:22PM 33.4333 -112.0333 262° West 176 203 2,300  Level Phoenix TRACON
06:22PM 33.4311 -112.0525 262° West 172 198 2,500 1,920 Climbing Albuquerque Center
06:24PM 33.4336 -112.1292 272° West 221 254 4,800 2,220 Climbing Albuquerque Center
06:25PM 33.4658 -112.2017 298° West 278 320 7,100 2,460 Climbing Albuquerque Center
06:26PM 33.5211 -112.1431 41° Northeast 304 350 10,000 2,640 Climbing Albuquerque Center
06:27PM 33.5403 -112.0439 77° East 308 354 12,600 2,460 Climbing Albuquerque Center
06:28PM 33.5617 -111.9358 77° East 333 383 15,100 2,220 Climbing Albuquerque Center
06:29PM 33.5831 -111.8214 77° East 353 406 17,300 1,980 Climbing Albuquerque Center
06:30PM 33.6122 -111.6753 76° East 378 435 19,300 1,500 Climbing Albuquerque Center
06:31PM 33.6381 -111.5369 77° East 430 495 20,500 1,440 Climbing Albuquerque Center
06:32PM 33.6650 -111.3928 77° East 446 513 22,300 1,620 Climbing Albuquerque Center
06:33PM 33.6956 -111.2431 76° East 462 532 23,900 1,680 Climbing Albuquerque Center
06:34PM 33.7494 -111.0986 66° East 476 548 25,800 1,740 Climbing Albuquerque Center
06:35PM 33.8108 -110.9236 67° East 478 550 27,500 1,620 Climbing Albuquerque Center
06:36PM 33.8631 -110.7753 67° East 482 555 29,200 1,020 Climbing Albuquerque Center
06:37PM 33.9156 -110.6258 67° East 484 557 29,700 720 Climbing Albuquerque Center
06:38PM 33.9700 -110.4692 67° East 500 575 30,700 1,200 Climbing Albuquerque Center
06:39PM 34.0311 -110.2967 67° East 514 592 32,300 1,440 Climbing Albuquerque Center
06:40PM 34.0850 -110.1389 68° East 514 592 33,700 1,200 Climbing Albuquerque Center
06:41PM 34.1411 -109.9789 67° East 508 585 34,900 960 Climbing Albuquerque Center
06:42PM 34.1997 -109.8044 68° East 504 580 35,800 720 Climbing Albuquerque Center
06:43PM 34.2517 -109.6539 67° East 507 583 36,500 480 Climbing Albuquerque Center
06:44PM 34.3122 -109.4747 68° East 513 590 36,900 240 Climbing Albuquerque Center
06:45PM 34.3647 -109.3206 68° East 515 593 37,000  Climbing Albuquerque Center
06:46PM 34.4258 -109.1403 68° East 519 597 37,000  Level Albuquerque Center
06:47PM 34.4689 -108.9814 72° East 518 596 37,000  Level Albuquerque Center
06:48PM 34.5200 -108.7983 71° East 517 595 37,000  Level Albuquerque Center
06:49PM 34.5628 -108.6428 71° East 513 590 37,000  Level Albuquerque Center
06:50PM 34.6131 -108.4603 71° East 513 590 37,000  Level Albuquerque Center
06:51PM 34.6522 -108.3150 72° East 514 592 37,000  Level Albuquerque Center
06:52PM 34.6972 -108.1489 72° East 516 594 37,000  Level Albuquerque Center
06:53PM 34.7497 -107.9494 72° East 518 596 37,000  Level Albuquerque Center
06:54PM 34.7953 -107.7819 72° East 520 598 37,000  Level Albuquerque Center
06:55PM 34.8375 -107.6133 73° East 524 603 37,000  Level Albuquerque Center
06:57PM 34.8828 -107.4433 72° East 526 605 37,000  Level Albuquerque Center
06:58PM 34.9269 -107.2733 72° East 527 606 37,000  Level Albuquerque Center
06:59PM 34.9750 -107.0933 72° East 533 613 37,000  Level Albuquerque Center
07:00PM 35.0225 -106.9031 73° East 529 609 37,000  Level Albuquerque Center
07:01PM 35.0686 -106.7478 70° East 517 595 37,000  Level Albuquerque Center
07:02PM 35.1397 -106.5675 64° Northeast 524 603 37,000  Level Albuquerque Center
07:03PM 35.1886 -106.4272 67° East 523 602 37,000  Level Albuquerque Center
07:04PM 35.2489 -106.2669 65° Northeast 521 600 37,000  Level Albuquerque Center
07:05PM 35.3111 -106.0925 66° East 515 593 37,000  Level Albuquerque Center
07:06PM 35.3767 -105.9125 66° East 523 602 37,000  Level Albuquerque Center
07:07PM 35.4456 -105.7364 64° Northeast 528 608 37,000  Level Albuquerque Center
07:08PM 35.5028 -105.5717 67° East 523 602 37,000  Level Albuquerque Center
07:09PM 35.5581 -105.4097 67° East 513 590 37,000  Level Albuquerque Center
07:10PM 35.6172 -105.2447 66° East 517 595 37,000  Level Albuquerque Center
07:11PM 35.6856 -105.0836 62° Northeast 522 601 37,000  Level Albuquerque Center
07:12PM 35.7664 -104.9347 56° Northeast 517 595 37,000  Level Albuquerque Center
07:13PM 35.8478 -104.7839 56° Northeast 519 597 37,000  Level Albuquerque Center
07:14PM 35.9303 -104.6325 56° Northeast 522 601 37,000  Level Albuquerque Center
07:15PM 36.0119 -104.4792 57° Northeast 526 605 37,000  Level Albuquerque Center
07:16PM 36.0942 -104.3278 56° Northeast 525 604 37,000  Level Albuquerque Center
07:17PM 36.1736 -104.1767 57° Northeast 521 600 37,000  Level Albuquerque Center
07:18PM 36.2547 -104.0253 56° Northeast 520 598 37,000  Level Albuquerque Center
07:19PM 36.3486 -103.8472 57° Northeast 522 601 37,000  Level Albuquerque Center
07:20PM 36.4278 -103.6961 57° Northeast 520 598 37,000  Level Albuquerque Center
07:21PM 36.5075 -103.5444 57° Northeast 519 597 37,000  Level Albuquerque Center
07:22PM 36.5864 -103.3919 57° Northeast 518 596 37,000  Level Albuquerque Center
07:23PM 36.6656 -103.2389 57° Northeast 520 598 37,000  Level Albuquerque Center
07:24PM 36.7464 -103.0836 57° Northeast 525 604 37,000  Level Albuquerque Center
07:25PM 36.8256 -102.9272 58° Northeast 528 608 37,000  Level Albuquerque Center
07:26PM 36.9153 -102.7531 57° Northeast 530 610 37,000  Level Albuquerque Center
07:27PM 36.9897 -102.6014 58° Northeast 534 615 37,000  Level Albuquerque Center
07:28PM 37.0675 -102.4533 57° Northeast 531 611 37,000  Level Albuquerque Center
07:29PM 37.1547 -102.2778 58° Northeast 533 613 37,000  Level Albuquerque Center
07:30PM 37.2311 -102.1269 58° Northeast 534 615 37,000  Level Albuquerque Center
07:31PM 37.3175 -101.9503 58° Northeast 533 613 37,000  Level Albuquerque Center
07:32PM 37.3747 -101.8181 61° Northeast 536 617 37,000  Level Kansas City Center
07:33PM 37.4400 -101.6236 67° East 539 620 37,000  Level Kansas City Center
07:34PM 37.4978 -101.4586 66° East 540 621 37,000  Level Kansas City Center
07:36PM 37.5653 -101.2656 66° East 539 620 37,000  Level Kansas City Center
07:37PM 37.6222 -101.0992 67° East 541 623 37,000  Level Kansas City Center
07:38PM 37.6819 -100.9239 67° East 541 623 37,000  Level Kansas City Center
07:39PM 37.7444 -100.7458 66° East 545 627 37,000  Level Kansas City Center
07:40PM 37.8097 -100.5511 67° East 549 632 37,000  Level Kansas City Center
07:41PM 37.8758 -100.3508 67° East 551 634 37,000  Level Kansas City Center
07:42PM 37.9331 -100.1803 67° East 551 634 37,000  Level Kansas City Center
07:43PM 37.9889 -100.0081 68° East 552 635 37,000  Level Kansas City Center
07:44PM 38.0550 -99.8072 67° East 552 635 37,000  Level Kansas City Center
07:45PM 38.1097 -99.6353 68° East 551 634 37,000  Level Kansas City Center
07:46PM 38.1761 -99.4336 67° East 552 635 37,000  Level Kansas City Center
07:47PM 38.2350 -99.2528 67° East 553 636 37,000  Level Kansas City Center
07:48PM 38.2936 -99.0681 68° East 559 643 37,000  Level Kansas City Center
07:49PM 38.3536 -98.8825 68° East 563 648 37,000  Level Kansas City Center
07:50PM 38.4136 -98.6953 68° East 567 652 37,000  Level Kansas City Center
07:51PM 38.4731 -98.5083 68° East 568 654 37,000  Level Kansas City Center
07:52PM 38.5317 -98.3225 68° East 563 648 37,000  Level Kansas City Center
07:53PM 38.5894 -98.1356 68° East 561 646 37,000  Level Kansas City Center
07:54PM 38.6458 -97.9497 69° East 558 642 37,000  Level Kansas City Center
07:55PM 38.7106 -97.7419 68° East 551 634 37,000  Level Kansas City Center
07:56PM 38.7714 -97.5422 69° East 545 627 37,000  Level Kansas City Center
07:57PM 38.8242 -97.3664 69° East 545 627 37,000  Level Kansas City Center
07:58PM 38.8781 -97.1867 69° East 541 623 37,000  Level Kansas City Center
07:59PM 38.9314 -97.0064 69° East 540 621 37,000  Level Kansas City Center
08:00PM 38.9844 -96.8286 69° East 534 615 37,000  Level Kansas City Center
08:01PM 39.0444 -96.6258 69° East 533 613 37,000  Level Kansas City Center
08:02PM 39.0931 -96.4539 70° East 534 615 37,000  Level Kansas City Center
08:03PM 39.1508 -96.2525 70° East 537 618 37,000  Level Kansas City Center
08:04PM 39.2008 -96.0811 69° East 535 616 37,000  Level Kansas City Center
08:05PM 39.2497 -95.9072 70° East 538 619 37,000  Level Kansas City Center
08:06PM 39.3078 -95.7014 70° East 545 627 37,000  Level Kansas City Center
08:07PM 39.3564 -95.5261 70° East 538 619 37,000  Level Kansas City Center
08:08PM 39.4153 -95.3164 70° East 537 618 37,000  Level Kansas City Center
08:09PM 39.4656 -95.1328 70° East 539 620 37,000  Level Kansas City Center
08:10PM 39.5125 -94.9647 70° East 542 624 37,000  Level Kansas City Center
08:12PM 39.5683 -94.7589 71° East 542 624 37,000  Level Kansas City Center
08:13PM 39.6175 -94.5817 70° East 544 626 37,000  Level Kansas City Center
08:14PM 39.6731 -94.3744 71° East 544 626 37,000  Level Kansas City Center
08:15PM 39.7206 -94.1961 71° East 545 627 37,000  Level Kansas City Center
08:16PM 39.7761 -93.9886 71° East 547 629 37,000  Level Kansas City Center
08:17PM 39.8172 -93.8247 72° East 554 638 37,000  Level Kansas City Center
08:18PM 39.8658 -93.6394 71° East 550 633 37,000  Level Kansas City Center
08:19PM 39.9275 -93.4217 70° East 541 623 37,000  Level Kansas City Center
08:20PM 39.9725 -93.2378 72° East 537 618 37,000  Level Kansas City Center
08:21PM 40.0181 -93.0533 72° East 538 619 37,000  Level Kansas City Center
08:22PM 40.0667 -92.8639 71° East 537 618 37,000  Level Kansas City Center
08:23PM 40.1172 -92.6544 72° East 535 616 37,000  Level Kansas City Center
08:24PM 40.1606 -92.4781 72° East 534 615 37,000  Level Kansas City Center
08:25PM 40.1981 -92.2900 75° East 536 617 37,000  Level Kansas City Center
08:26PM 40.2356 -92.1044 75° East 537 618 37,000  Level Kansas City Center
08:27PM 40.2719 -91.9197 75° East 532 612 37,000 -60 Level Kansas City Center
08:28PM 40.3169 -91.6958 75° East 534 615 36,900 -480 Descending Kansas City Center
08:29PM 40.3536 -91.5086 76° East 535 616 36,000 -1,680 Descending Kansas City Center
08:30PM 40.3931 -91.3186 75° East 543 625 33,600 -2,460 Descending Chicago Center
08:31PM 40.4303 -91.1278 76° East 554 638 31,100 -1,260 Descending Chicago Center
08:32PM 40.4669 -90.9381 76° East 539 620 31,000 -300 Descending Chicago Center
08:33PM 40.5022 -90.7508 76° East 531 611 30,500 -840 Descending Chicago Center
08:34PM 40.5431 -90.5297 76° East 521 600 29,300 -1,020 Descending Chicago Center
08:35PM 40.5775 -90.3508 76° East 510 587 28,400 -900 Descending Chicago Center
08:36PM 40.6094 -90.1794 76° East 512 589 27,500 -1,020 Descending Chicago Center
08:37PM 40.6500 -89.9578 76° East 520 598 26,300 -1,500 Descending Chicago Center
08:38PM 40.6811 -89.7808 77° East 503 579 24,500 -2,040 Descending Chicago Center
08:39PM 40.7494 -89.6322 59° Northeast 480 552 22,100 -2,280 Descending Chicago Center
08:40PM 40.8103 -89.4914 60° Northeast 457 526 19,800 -2,100 Descending Chicago Center
08:41PM 40.8706 -89.3522 60° Northeast 445 512 17,800 -1,500 Descending Chicago Center
08:42PM 40.9269 -89.2206 60° Northeast 420 483 16,700 -1,200 Descending Chicago Center
08:43PM 40.9928 -89.0656 61° Northeast 410 472 15,400 -1,260 Descending Chicago Center
08:44PM 41.0467 -88.9478 59° Northeast 392 451 14,200 -1,560 Descending Chicago Center
08:46PM 41.1244 -88.8564 41° Northeast 379 436 12,200 -1,800 Descending Chicago Center
08:47PM 41.1964 -88.7650 44° Northeast 363 418 10,500 -1,080 Descending Chicago Center
08:48PM 41.2606 -88.6847 43° Northeast 327 376 10,000 -1,020 Descending Chicago Center
08:49PM 41.3178 -88.6100 44° Northeast 297 342 8,500 -1,560 Descending Chicago Center
08:50PM 41.3858 -88.5239 43° Northeast 285 328 6,800 -1,260 Descending Chicago Center
08:51PM 41.4353 -88.4481 49° Northeast 280 322 6,000 -780 Descending Chicago Center
08:52PM 41.4633 -88.3511 69° East 278 320 5,300 -540 Descending Chicago Center
08:53PM 41.4925 -88.2528 68° East 281 323 5,000 -180 Descending Chicago Center
08:54PM 41.5222 -88.1567 68° East 279 321 5,000  Level Chicago Center
08:55PM 41.5431 -88.0547 75° East 282 325 5,000 -60 Level Chicago Center
08:56PM 41.5481 -87.9542 86° East 273 314 4,900  Descending Chicago Center
08:57PM 41.5536 -87.8456 86° East 255 293 5,000  Climbing Chicago Center
08:58PM 41.5575 -87.7564 87° East 247 284 4,900 -600 Descending Chicago Center
08:59PM 41.5669 -87.6678 82° East 250 288 3,800 -960 Descending Chicago Center
09:00PM 41.6094 -87.6033 49° Northeast 238 274 2,900 -420 Descending Chicago Center
09:01PM 41.6511 -87.5678 33° Northeast 219 252 3,000  Climbing Chicago Center
09:02PM 41.6842 -87.6092 317° Northwest 183 211 3,000 -240 Level Chicago Center
09:03PM 41.7167 -87.6500 317° Northwest 166 191 2,600 -600 Descending Chicago TRACON
09:04PM 41.7667 -87.6667 346° North 179 206 1,900 -480 Descending Chicago TRACON
09:05PM 41.8167 -87.6667 360° North 170 196 1,700 -300 Descending Chicago TRACON
09:06PM 41.8167 -87.7000 270° West 134 154 1,400 -300 Descending Chicago TRACON